createdAt,value
2022-12-24T00:00:10.773Z,12.75
2022-12-24T00:02:37.752Z,12.60
2022-12-24T00:05:05.153Z,12.48
2022-12-24T00:07:32.004Z,12.80
2022-12-24T00:09:58.746Z,11.32
2022-12-24T00:12:25.667Z,11.60
2022-12-24T00:14:52.348Z,11.57
2022-12-24T00:17:19.323Z,11.30
2022-12-24T00:19:46.065Z,11.10
2022-12-24T00:22:12.801Z,11.65
2022-12-24T00:24:39.529Z,11.65
2022-12-24T00:27:06.367Z,11.77
2022-12-24T00:29:33.883Z,12.00
2022-12-24T00:32:00.773Z,10.90
2022-12-24T00:34:27.685Z,11.73
2022-12-24T00:36:54.653Z,10.88
2022-12-24T00:39:21.480Z,11.93
2022-12-24T00:41:48.150Z,10.73
2022-12-24T00:44:14.903Z,10.45
2022-12-24T00:46:42.139Z,10.70
2022-12-24T00:49:11.424Z,11.52
2022-12-24T00:51:38.606Z,11.80
2022-12-24T00:54:06.045Z,10.93
2022-12-24T00:56:33.191Z,11.23
2022-12-24T00:58:59.849Z,10.73
2022-12-24T01:01:27.639Z,10.35
2022-12-24T01:04:14.081Z,10.68
2022-12-24T01:06:40.854Z,9.95
2022-12-24T01:09:07.562Z,10.05
2022-12-24T01:11:34.269Z,11.35
2022-12-24T01:14:00.906Z,10.10
2022-12-24T01:16:27.716Z,10.57
2022-12-24T01:18:54.497Z,10.85
2022-12-24T01:21:21.187Z,10.70
2022-12-24T01:23:47.840Z,10.98
2022-12-24T01:26:14.691Z,11.10
2022-12-24T01:28:41.648Z,12.63
2022-12-24T01:31:18.620Z,12.07
2022-12-24T01:33:46.953Z,12.77
2022-12-24T01:36:14.328Z,12.23
2022-12-24T01:38:41.715Z,12.23
2022-12-24T01:41:33.400Z,11.82
2022-12-24T01:44:17.275Z,12.00
2022-12-24T01:46:44.818Z,12.93
2022-12-24T01:49:14.547Z,12.98
2022-12-24T01:51:56.105Z,13.45
2022-12-24T01:54:38.711Z,13.45
2022-12-24T01:57:10.884Z,13.32
2022-12-24T01:59:42.340Z,13.38
2022-12-24T02:02:09.390Z,13.57
2022-12-24T02:05:02.247Z,13.77
2022-12-24T02:07:29.461Z,13.15
2022-12-24T02:09:59.238Z,13.98
2022-12-24T02:12:32.146Z,13.80
2022-12-24T02:14:59.565Z,15.15
2022-12-24T02:17:29.166Z,13.93
2022-12-24T02:20:31.413Z,14.07
2022-12-24T02:23:34.926Z,13.68
2022-12-24T02:26:04.613Z,13.85
2022-12-24T02:29:08.649Z,14.30
2022-12-24T02:31:47.167Z,14.63
2022-12-24T02:34:35.746Z,14.43
2022-12-24T02:37:31.399Z,13.50
2022-12-24T02:40:16.753Z,14.70
2022-12-24T02:42:50.125Z,13.82
2022-12-24T02:45:23.681Z,15.27
2022-12-24T02:47:51.856Z,14.57
2022-12-24T02:50:19.478Z,16.05
2022-12-24T02:52:47.651Z,16.20
2022-12-24T02:55:44.581Z,15.02
2022-12-24T02:58:28.130Z,15.43
2022-12-24T03:00:57.688Z,15.53
2022-12-24T03:03:35.244Z,15.25
2022-12-24T03:06:14.749Z,15.43
2022-12-24T03:08:53.379Z,15.68
2022-12-24T03:11:20.542Z,15.65
2022-12-24T03:13:48.820Z,16.13
2022-12-24T03:16:19.387Z,17.08
2022-12-24T03:18:48.690Z,16.05
2022-12-24T03:21:21.585Z,17.45
2022-12-24T03:23:48.348Z,15.57
2022-12-24T03:26:18.786Z,16.52
2022-12-24T03:28:46.586Z,17.50
2022-12-24T03:31:13.994Z,16.75
2022-12-24T03:33:41.284Z,17.17
2022-12-24T03:36:09.185Z,16.95
2022-12-24T03:38:36.030Z,16.20
2022-12-24T03:41:03.705Z,17.08
2022-12-24T03:43:30.570Z,15.95
2022-12-24T03:45:57.397Z,17.40
2022-12-24T03:48:32.169Z,16.02
2022-12-24T03:50:59.358Z,15.63
2022-12-24T03:53:26.041Z,16.25
2022-12-24T03:55:52.682Z,15.75
2022-12-24T03:58:19.403Z,16.15
2022-12-24T04:00:46.097Z,15.73
2022-12-24T04:03:12.872Z,15.68
2022-12-24T04:05:39.565Z,14.85
2022-12-24T04:08:06.359Z,15.00
2022-12-24T04:10:33.050Z,14.60
2022-12-24T04:12:59.735Z,14.35
2022-12-24T04:15:26.507Z,15.10
2022-12-24T04:17:53.182Z,14.00
2022-12-24T04:20:20.036Z,14.90
2022-12-24T04:22:46.685Z,14.38
2022-12-24T04:25:13.518Z,14.40
2022-12-24T04:27:40.160Z,14.93
2022-12-24T04:30:07.512Z,13.73
2022-12-24T04:32:34.208Z,14.30
2022-12-24T04:35:01.010Z,14.68
2022-12-24T04:37:28.406Z,13.82
2022-12-24T04:39:55.096Z,13.55
2022-12-24T04:42:21.749Z,14.27
2022-12-24T04:44:48.478Z,14.48
2022-12-24T04:47:15.146Z,14.25
2022-12-24T04:49:41.814Z,13.05
2022-12-24T04:52:08.491Z,13.27
2022-12-24T04:54:35.253Z,13.23
2022-12-24T04:57:01.987Z,12.55
2022-12-24T04:59:28.645Z,12.35
2022-12-24T05:01:55.486Z,13.63
2022-12-24T05:04:22.225Z,12.75
2022-12-24T05:06:48.911Z,12.75
2022-12-24T05:09:15.597Z,11.95
2022-12-24T05:11:42.291Z,12.27
2022-12-24T05:14:09.085Z,12.43
2022-12-24T05:16:35.876Z,12.38
2022-12-24T05:19:02.672Z,11.93
2022-12-24T05:21:29.526Z,11.82
2022-12-24T05:24:15.307Z,11.85
2022-12-24T05:26:44.485Z,11.55
2022-12-24T05:29:15.058Z,11.45
2022-12-24T05:31:43.467Z,10.95
2022-12-24T05:34:10.928Z,11.50
2022-12-24T05:36:38.306Z,11.55
2022-12-24T05:39:09.768Z,10.98
2022-12-24T05:41:40.435Z,11.35
2022-12-24T05:44:07.234Z,11.50
2022-12-24T05:46:33.987Z,11.25
2022-12-24T05:49:00.720Z,11.13
2022-12-24T05:51:27.397Z,10.73
2022-12-24T05:53:54.098Z,11.23
2022-12-24T05:56:25.309Z,11.50
2022-12-24T05:58:53.733Z,11.65
2022-12-24T06:01:22.468Z,10.77
2022-12-24T06:03:49.975Z,11.27
2022-12-24T06:06:27.986Z,10.60
2022-12-24T06:08:55.867Z,11.88
2022-12-24T06:11:25.183Z,11.18
2022-12-24T06:13:52.835Z,11.68
2022-12-24T06:16:20.459Z,11.68
2022-12-24T06:18:47.401Z,12.13
2022-12-24T06:21:14.711Z,10.98
2022-12-24T06:23:43.609Z,10.88
2022-12-24T06:26:14.439Z,11.38
2022-12-24T06:28:41.441Z,10.52
2022-12-24T06:31:15.748Z,10.93
2022-12-24T06:33:42.827Z,11.60
2022-12-24T06:36:17.464Z,10.65
2022-12-24T06:38:45.756Z,11.38
2022-12-24T06:41:12.593Z,11.50
2022-12-24T06:43:40.134Z,11.50
2022-12-24T06:46:06.983Z,11.63
2022-12-24T06:48:33.663Z,11.88
2022-12-24T06:51:03.318Z,12.45
2022-12-24T06:53:30.809Z,10.65
2022-12-24T06:56:09.547Z,10.90
2022-12-24T06:58:36.505Z,34.78
2022-12-24T07:01:04.750Z,42.22
2022-12-24T07:03:32.334Z,32.33
2022-12-24T07:05:59.385Z,18.45
2022-12-24T07:08:26.279Z,12.93
2022-12-24T07:10:54.530Z,13.38
2022-12-24T07:13:22.030Z,11.60
2022-12-24T07:15:58.121Z,11.70
2022-12-24T07:18:25.155Z,12.43
2022-12-24T07:20:51.874Z,12.32
2022-12-24T07:23:18.671Z,11.93
2022-12-24T07:25:45.390Z,12.30
2022-12-24T07:28:12.353Z,11.35
2022-12-24T07:30:39.115Z,12.63
2022-12-24T07:33:05.911Z,12.20
2022-12-24T07:35:32.618Z,12.73
2022-12-24T07:37:59.265Z,12.65
2022-12-24T07:40:26.019Z,13.35
2022-12-24T07:42:52.661Z,13.05
2022-12-24T07:45:19.491Z,12.32
2022-12-24T07:47:46.191Z,12.23
2022-12-24T07:50:12.860Z,12.85
2022-12-24T07:52:39.593Z,12.70
2022-12-24T07:55:06.520Z,10.93
2022-12-24T07:57:33.174Z,13.27
2022-12-24T07:59:59.874Z,12.60
2022-12-24T08:02:26.711Z,12.77
2022-12-24T08:04:53.462Z,11.98
2022-12-24T08:07:20.325Z,13.00
2022-12-24T08:09:46.995Z,13.45
2022-12-24T08:12:13.677Z,13.18
2022-12-24T08:14:40.464Z,14.02
2022-12-24T08:17:07.161Z,13.40
2022-12-24T08:19:33.841Z,14.00
2022-12-24T08:22:00.524Z,12.60
2022-12-24T08:24:27.219Z,13.48
2022-12-24T08:26:53.856Z,13.38
2022-12-24T08:29:20.703Z,13.13
2022-12-24T08:31:47.418Z,14.00
2022-12-24T08:34:14.077Z,13.75
2022-12-24T08:36:41.025Z,13.65
2022-12-24T08:39:08.879Z,17.42
2022-12-24T08:41:35.718Z,22.77
2022-12-24T08:44:02.484Z,17.60
2022-12-24T08:46:29.352Z,14.90
2022-12-24T08:48:58.612Z,13.80
2022-12-24T08:51:25.422Z,14.05
2022-12-24T09:04:44.944Z,12.52
2022-12-24T09:07:11.970Z,13.88
2022-12-24T09:09:39.119Z,14.07
2022-12-24T09:12:07.049Z,13.38
2022-12-24T09:14:34.241Z,14.25
2022-12-24T09:17:01.026Z,14.77
2022-12-24T09:19:28.513Z,14.38
2022-12-24T09:21:55.215Z,14.02
2022-12-24T09:24:22.173Z,14.80
2022-12-24T09:26:55.507Z,15.57
2022-12-24T09:29:24.094Z,15.18
2022-12-24T09:31:50.910Z,15.40
2022-12-24T09:34:17.686Z,15.30
2022-12-24T09:36:44.445Z,15.43
2022-12-24T09:39:11.145Z,13.85
2022-12-24T09:41:43.649Z,19.38
2022-12-24T09:44:37.929Z,19.20
2022-12-24T09:47:26.370Z,15.82
2022-12-24T09:49:55.883Z,15.82
2022-12-24T09:52:45.366Z,14.98
2022-12-24T09:55:33.486Z,14.80
2022-12-24T09:58:02.365Z,14.57
2022-12-24T10:00:33.299Z,16.52
2022-12-24T10:03:00.004Z,20.38
2022-12-24T10:05:41.434Z,18.60
2022-12-24T10:08:39.241Z,18.55
2022-12-24T10:11:53.791Z,26.80
2022-12-24T10:14:20.524Z,17.90
2022-12-24T10:16:52.091Z,19.40
2022-12-24T10:19:27.897Z,18.40
2022-12-24T10:21:57.388Z,17.27
2022-12-24T10:24:37.981Z,15.75
2022-12-24T10:27:14.779Z,14.57
2022-12-24T10:29:46.345Z,15.55
2022-12-24T10:32:28.604Z,14.68
2022-12-24T10:35:06.281Z,15.68
2022-12-24T10:37:32.909Z,14.75
2022-12-24T10:40:00.895Z,15.68
2022-12-24T10:42:50.986Z,14.38
2022-12-24T10:45:21.607Z,15.30
2022-12-24T10:47:52.734Z,13.93
2022-12-24T10:50:31.025Z,13.77
2022-12-24T10:53:14.573Z,13.85
2022-12-24T10:55:41.961Z,13.98
2022-12-24T10:58:16.583Z,13.43
2022-12-24T11:00:51.076Z,14.77
2022-12-24T11:03:24.396Z,14.27
2022-12-24T11:06:11.417Z,14.45
2022-12-24T11:08:41.321Z,14.23
2022-12-24T11:11:14.124Z,14.23
2022-12-24T11:13:57.021Z,13.45
2022-12-24T11:16:35.601Z,13.40
2022-12-24T11:19:05.414Z,13.43
2022-12-24T11:21:40.040Z,14.43
2022-12-24T11:24:27.591Z,13.15
2022-12-24T11:26:54.916Z,15.02
2022-12-24T11:29:22.662Z,13.75
2022-12-24T11:31:52.507Z,14.65
2022-12-24T11:34:29.705Z,13.35
2022-12-24T11:37:23.905Z,14.32
2022-12-24T11:40:00.597Z,14.52
2022-12-24T11:42:40.716Z,15.18
2022-12-24T11:45:29.410Z,14.77
2022-12-24T11:47:57.326Z,14.60
2022-12-24T11:50:30.347Z,15.82
2022-12-24T11:53:00.877Z,14.23
2022-12-24T11:56:05.019Z,13.80
2022-12-24T11:58:48.762Z,14.77
2022-12-24T12:01:36.866Z,15.60
2022-12-24T12:04:15.165Z,13.63
2022-12-24T12:06:47.693Z,14.13
2022-12-24T12:09:50.435Z,15.27
2022-12-24T12:12:24.190Z,18.27
2022-12-24T12:14:58.665Z,15.82
2022-12-24T12:18:04.292Z,15.35
2022-12-24T12:20:40.464Z,14.00
2022-12-24T12:23:15.728Z,14.85
2022-12-24T12:25:52.437Z,15.45
2022-12-24T12:28:42.733Z,14.98
2022-12-24T12:31:15.801Z,14.38
2022-12-24T12:34:11.903Z,14.82
2022-12-24T12:36:52.826Z,14.18
2022-12-24T12:39:19.694Z,14.75
2022-12-24T12:42:02.705Z,15.20
2022-12-24T12:45:07.906Z,14.10
2022-12-24T12:50:31.089Z,14.20
2022-12-24T12:53:23.575Z,13.25
2022-12-24T12:55:59.992Z,13.85
2022-12-24T12:58:43.786Z,15.13
2022-12-24T13:01:26.042Z,14.45
2022-12-24T13:04:23.234Z,14.75
2022-12-24T13:07:04.726Z,13.43
2022-12-24T13:09:49.142Z,15.55
2022-12-24T13:12:52.570Z,13.98
2022-12-24T13:15:40.604Z,13.57
2022-12-24T13:18:34.503Z,12.82
2022-12-24T13:21:01.407Z,12.70
2022-12-24T13:23:28.454Z,16.60
2022-12-24T13:25:57.797Z,15.23
2022-12-24T13:28:24.557Z,14.07
2022-12-24T13:31:17.207Z,13.48
2022-12-24T13:33:43.910Z,13.02
2022-12-24T13:36:18.581Z,13.30
2022-12-24T13:38:50.691Z,13.85
2022-12-24T13:41:41.321Z,13.63
2022-12-24T13:44:13.107Z,14.13
2022-12-24T13:46:48.347Z,13.15
2022-12-24T13:49:42.069Z,13.45
2022-12-24T13:52:11.472Z,13.43
2022-12-24T13:54:46.800Z,14.30
2022-12-24T13:57:38.853Z,13.55
2022-12-24T14:00:20.687Z,12.68
2022-12-24T14:02:53.670Z,15.90
2022-12-24T14:05:44.363Z,17.80
2022-12-24T14:08:12.564Z,14.63
2022-12-24T14:10:46.214Z,14.45
2022-12-24T14:13:37.744Z,85.25
2022-12-24T14:16:10.049Z,18.98
2022-12-24T14:18:42.423Z,18.58
2022-12-24T14:21:23.475Z,16.30
2022-12-24T14:24:00.763Z,15.13
2022-12-24T14:26:32.207Z,14.32
2022-12-24T14:29:16.478Z,13.02
2022-12-24T14:31:53.528Z,11.65
2022-12-24T14:34:20.381Z,12.40
2022-12-24T14:36:48.755Z,11.70
2022-12-24T14:39:32.925Z,15.23
2022-12-24T14:42:14.609Z,15.18
2022-12-24T14:44:45.452Z,12.68
2022-12-24T14:47:41.561Z,12.93
2022-12-24T14:50:37.581Z,10.98
2022-12-24T14:53:26.185Z,12.02
2022-12-24T14:55:52.930Z,13.07
2022-12-24T14:58:24.723Z,12.98
2022-12-24T15:00:53.578Z,11.70
2022-12-24T15:03:24.284Z,18.48
2022-12-24T15:05:57.257Z,10.23
2022-12-24T15:08:32.110Z,8.93
2022-12-24T15:11:05.877Z,9.00
2022-12-24T15:13:39.477Z,8.20
2022-12-24T15:16:10.669Z,8.18
2022-12-24T15:18:43.121Z,9.95
2022-12-24T15:21:20.115Z,8.27
2022-12-24T15:23:50.085Z,8.80
2022-12-24T15:26:23.010Z,8.30
2022-12-24T15:28:50.650Z,9.68
2022-12-24T15:31:20.435Z,10.45
2022-12-24T15:33:48.646Z,9.00
2022-12-24T15:36:17.912Z,9.60
2022-12-24T15:38:47.386Z,9.98
2022-12-24T15:41:23.971Z,9.38
2022-12-24T15:43:52.785Z,8.35
2022-12-24T15:46:25.846Z,7.28
2022-12-24T15:48:55.209Z,7.70
2022-12-24T15:51:30.265Z,7.50
2022-12-24T15:54:04.454Z,6.85
2022-12-24T15:59:19.801Z,5.82
2022-12-24T16:01:48.473Z,6.35
2022-12-24T16:04:26.742Z,5.82
2022-12-24T16:07:02.263Z,6.45
2022-12-24T16:09:45.703Z,6.28
2022-12-24T16:12:22.076Z,8.13
2022-12-24T16:14:56.093Z,6.82
2022-12-24T16:17:26.285Z,6.00
2022-12-24T16:19:57.084Z,8.63
2022-12-24T16:22:35.008Z,8.45
2022-12-24T16:25:18.573Z,7.85
2022-12-24T16:27:45.232Z,8.27
2022-12-24T16:30:12.651Z,9.15
2022-12-24T16:32:41.994Z,9.45
2022-12-24T16:35:26.030Z,7.85
2022-12-24T16:37:53.675Z,9.00
2022-12-24T16:40:26.510Z,9.60
2022-12-24T16:43:13.190Z,8.18
2022-12-24T16:45:40.029Z,7.35
2022-12-24T16:48:08.228Z,6.80
2022-12-24T16:50:35.760Z,7.28
2022-12-24T16:53:02.403Z,6.20
2022-12-24T16:55:29.247Z,6.13
2022-12-24T16:57:55.992Z,6.70
2022-12-24T17:00:25.565Z,7.13
2022-12-24T17:02:53.156Z,6.90
2022-12-24T17:05:23.603Z,7.07
2022-12-24T17:07:51.208Z,10.25
2022-12-24T17:10:18.080Z,10.02
2022-12-24T17:12:44.776Z,7.10
2022-12-24T17:15:11.853Z,5.93
2022-12-24T17:17:38.586Z,5.28
2022-12-24T17:20:06.189Z,4.00
2022-12-24T17:22:32.997Z,4.03
2022-12-24T17:24:59.724Z,5.00
2022-12-24T17:27:26.511Z,13.05
2022-12-24T17:29:53.371Z,11.93
2022-12-24T17:32:20.171Z,26.20
2022-12-24T17:34:46.935Z,14.85
2022-12-24T17:37:13.718Z,11.68
2022-12-24T17:39:40.463Z,8.38
2022-12-24T17:42:07.317Z,8.57
2022-12-24T17:44:34.033Z,13.90
2022-12-24T17:47:01.795Z,14.35
2022-12-24T17:49:28.789Z,18.88
2022-12-24T17:51:55.579Z,11.90
2022-12-24T17:54:22.295Z,10.25
2022-12-24T17:56:49.077Z,8.07
2022-12-24T17:59:15.926Z,9.77
2022-12-24T18:01:42.705Z,7.53
2022-12-24T18:04:11.122Z,7.97
2022-12-24T18:06:44.145Z,10.18
2022-12-24T18:09:14.111Z,9.77
2022-12-24T18:11:41.100Z,9.52
2022-12-24T18:14:08.163Z,8.05
2022-12-24T18:16:38.016Z,6.60
2022-12-24T18:19:10.269Z,8.25
2022-12-24T18:21:37.105Z,8.30
2022-12-24T18:24:04.666Z,10.98
2022-12-24T18:26:33.321Z,11.48
2022-12-24T18:29:01.765Z,11.05
2022-12-24T18:31:30.044Z,8.75
2022-12-24T18:33:57.116Z,8.73
2022-12-24T18:36:24.358Z,8.63
2022-12-24T18:38:51.814Z,8.63
2022-12-24T18:41:21.997Z,7.20
2022-12-24T18:43:49.260Z,9.38
2022-12-24T18:46:21.528Z,10.30
2022-12-24T18:48:48.526Z,11.48
2022-12-24T18:51:16.339Z,12.32
2022-12-24T18:53:43.140Z,11.82
2022-12-24T18:56:17.233Z,12.55
2022-12-24T18:58:44.723Z,10.23
2022-12-24T19:01:20.709Z,10.05
2022-12-24T19:03:49.154Z,9.60
2022-12-24T19:06:17.190Z,9.23
2022-12-24T19:08:57.102Z,7.82
2022-12-24T19:11:26.085Z,7.07
2022-12-24T19:13:52.998Z,7.03
2022-12-24T19:16:19.987Z,6.30
2022-12-24T19:18:47.223Z,8.63
2022-12-24T19:21:15.772Z,8.13
2022-12-24T19:23:42.819Z,9.45
2022-12-24T19:26:14.068Z,11.00
2022-12-24T19:28:41.139Z,10.32
2022-12-24T19:31:10.558Z,9.90
2022-12-24T19:33:42.359Z,11.13
2022-12-24T19:36:18.859Z,11.40
2022-12-24T19:38:46.200Z,12.32
2022-12-24T19:41:15.974Z,12.45
2022-12-24T19:43:45.849Z,10.80
2022-12-24T19:46:14.772Z,11.57
2022-12-24T19:48:42.767Z,9.45
2022-12-24T19:51:11.868Z,11.25
2022-12-24T19:53:39.415Z,11.77
2022-12-24T19:56:06.757Z,12.82
2022-12-24T19:58:33.596Z,12.50
2022-12-24T20:01:15.553Z,11.70
2022-12-24T20:03:43.327Z,29.17
2022-12-24T20:06:10.297Z,40.60
2022-12-24T20:08:38.192Z,42.55
2022-12-24T20:11:10.934Z,36.10
2022-12-24T20:13:39.881Z,28.77
2022-12-24T20:16:07.714Z,24.15
2022-12-24T20:18:35.047Z,19.08
2022-12-24T20:21:03.993Z,22.42
2022-12-24T20:23:30.837Z,19.63
2022-12-24T20:25:59.392Z,16.83
2022-12-24T20:28:31.013Z,16.95
2022-12-24T20:30:58.035Z,16.10
2022-12-24T20:33:24.952Z,17.55
2022-12-24T20:35:51.929Z,12.90
2022-12-24T20:38:19.141Z,12.63
2022-12-24T20:40:46.595Z,11.27
2022-12-24T20:43:13.559Z,12.45
2022-12-24T20:45:41.126Z,12.57
2022-12-24T20:48:08.006Z,12.70
2022-12-24T20:50:34.657Z,11.85
2022-12-24T20:53:01.354Z,11.00
2022-12-24T20:55:28.244Z,11.30
2022-12-24T20:57:54.918Z,10.05
2022-12-24T21:00:22.135Z,12.13
2022-12-24T21:02:48.875Z,12.68
2022-12-24T21:05:15.737Z,12.73
2022-12-24T21:07:43.651Z,11.10
2022-12-24T21:10:12.281Z,10.50
2022-12-24T21:12:58.806Z,9.88
2022-12-24T21:15:28.167Z,10.75
2022-12-24T21:17:55.709Z,9.93
2022-12-24T21:20:24.941Z,11.15
2022-12-24T21:22:55.885Z,10.57
2022-12-24T21:25:26.006Z,10.40
2022-12-24T21:27:55.420Z,9.43
2022-12-24T21:30:22.953Z,9.60
2022-12-24T21:32:51.012Z,10.60
2022-12-24T21:35:18.175Z,8.27
2022-12-24T21:37:44.846Z,8.80
2022-12-24T21:40:12.105Z,8.43
2022-12-24T21:42:38.883Z,7.85
2022-12-24T21:45:06.572Z,8.65
2022-12-24T21:47:35.083Z,8.73
2022-12-24T21:50:20.149Z,7.68
2022-12-24T21:52:46.863Z,8.05
2022-12-24T21:55:13.674Z,7.55
2022-12-24T21:57:55.326Z,7.40
2022-12-24T22:00:22.128Z,7.28
2022-12-24T22:02:54.494Z,7.70
2022-12-24T22:05:22.253Z,7.30
2022-12-24T22:08:07.491Z,7.68
2022-12-24T22:10:52.949Z,7.05
2022-12-24T22:13:20.674Z,6.78
2022-12-24T22:15:50.227Z,6.65
2022-12-24T22:18:18.950Z,6.25
2022-12-24T22:20:46.832Z,6.55
2022-12-24T22:23:15.032Z,7.10
2022-12-24T22:25:43.888Z,6.45
2022-12-24T22:28:11.450Z,6.22
2022-12-24T22:30:40.225Z,6.38
2022-12-24T22:33:08.060Z,6.45
2022-12-24T22:35:40.984Z,6.65
2022-12-24T22:38:09.238Z,6.20
2022-12-24T22:40:38.900Z,5.70
2022-12-24T22:43:05.681Z,5.80
2022-12-24T22:45:32.356Z,6.35
2022-12-24T22:47:59.007Z,5.55
2022-12-24T22:50:25.873Z,6.20
2022-12-24T22:52:53.830Z,6.90
2022-12-24T22:55:20.903Z,6.90
2022-12-24T22:57:47.657Z,6.10
2022-12-24T23:00:37.348Z,6.03
2022-12-24T23:03:04.977Z,6.70
2022-12-24T23:05:31.937Z,6.75
2022-12-24T23:07:58.751Z,6.68
2022-12-24T23:10:25.426Z,6.68
2022-12-24T23:13:14.844Z,6.28
2022-12-24T23:15:42.391Z,6.78
2022-12-24T23:18:09.482Z,6.70
2022-12-24T23:20:42.223Z,6.40
2022-12-24T23:23:09.217Z,6.03
2022-12-24T23:25:35.907Z,7.35
2022-12-24T23:28:02.743Z,6.68
2022-12-24T23:30:29.475Z,6.28
2022-12-24T23:32:56.106Z,6.65
2022-12-24T23:35:22.870Z,6.93
2022-12-24T23:37:49.587Z,6.78
2022-12-24T23:40:16.476Z,6.75
2022-12-24T23:42:43.227Z,7.38
2022-12-24T23:45:10.431Z,6.22
2022-12-24T23:47:37.148Z,6.18
2022-12-24T23:50:04.406Z,6.55
2022-12-24T23:52:31.104Z,6.50
2022-12-24T23:54:57.773Z,6.97
2022-12-24T23:57:24.473Z,6.70
2022-12-24T23:59:51.099Z,6.80
